sensor_id;sensor_type;location;lat;lon;timestamp;P1;durP1;ratioP1;P2;durP2;ratioP2
56752;SDS011;42627;42.646;23.642;2023-09-30T00:00:44;10.30;;;3.53;;
56752;SDS011;42627;42.646;23.642;2023-09-30T00:02:54;9.50;;;3.22;;
56752;SDS011;42627;42.646;23.642;2023-09-30T00:05:15;8.30;;;3.42;;
56752;SDS011;42627;42.646;23.642;2023-09-30T00:07:19;10.20;;;3.67;;
56752;SDS011;42627;42.646;23.642;2023-09-30T00:09:21;5.15;;;2.90;;
56752;SDS011;42627;42.646;23.642;2023-09-30T00:11:22;9.85;;;3.97;;
56752;SDS011;42627;42.646;23.642;2023-09-30T00:13:41;8.77;;;3.53;;
56752;SDS011;42627;42.646;23.642;2023-09-30T00:15:51;6.78;;;3.50;;
56752;SDS011;42627;42.646;23.642;2023-09-30T00:18:04;6.60;;;3.40;;
56752;SDS011;42627;42.646;23.642;2023-09-30T00:20:05;8.20;;;3.35;;
56752;SDS011;42627;42.646;23.642;2023-09-30T00:22:07;7.72;;;3.42;;
56752;SDS011;42627;42.646;23.642;2023-09-30T00:24:08;8.50;;;3.53;;
56752;SDS011;42627;42.646;23.642;2023-09-30T00:26:09;10.95;;;4.00;;
56752;SDS011;42627;42.646;23.642;2023-09-30T00:28:10;8.13;;;3.83;;
56752;SDS011;42627;42.646;23.642;2023-09-30T00:30:11;7.68;;;3.00;;
56752;SDS011;42627;42.646;23.642;2023-09-30T03:28:58;12.98;;;6.10;;
56752;SDS011;42627;42.646;23.642;2023-09-30T03:30:59;10.10;;;4.50;;
56752;SDS011;42627;42.646;23.642;2023-09-30T03:33:00;7.82;;;4.20;;
56752;SDS011;42627;42.646;23.642;2023-09-30T03:35:05;10.48;;;4.65;;
56752;SDS011;42627;42.646;23.642;2023-09-30T03:37:06;8.32;;;4.80;;
56752;SDS011;42627;42.646;23.642;2023-09-30T03:39:07;10.43;;;3.95;;
56752;SDS011;42627;42.646;23.642;2023-09-30T03:41:17;6.88;;;3.97;;
56752;SDS011;42627;42.646;23.642;2023-09-30T03:43:19;10.43;;;4.00;;
56752;SDS011;42627;42.646;23.642;2023-09-30T03:45:21;11.30;;;3.80;;
56752;SDS011;42627;42.646;23.642;2023-09-30T03:47:22;7.18;;;3.92;;
56752;SDS011;42627;42.646;23.642;2023-09-30T03:49:23;7.50;;;3.72;;
56752;SDS011;42627;42.646;23.642;2023-09-30T03:51:24;7.75;;;3.92;;
56752;SDS011;42627;42.646;23.642;2023-09-30T03:53:25;9.38;;;4.03;;
56752;SDS011;42627;42.646;23.642;2023-09-30T03:55:26;7.05;;;3.97;;
56752;SDS011;42627;42.646;23.642;2023-09-30T04:00:10;6.65;;;3.40;;
56752;SDS011;42627;42.646;23.642;2023-09-30T04:02:37;6.28;;;3.28;;
56752;SDS011;42627;42.646;23.642;2023-09-30T04:04:38;8.50;;;4.20;;
56752;SDS011;42627;42.646;23.642;2023-09-30T04:06:39;10.95;;;4.35;;
56752;SDS011;42627;42.646;23.642;2023-09-30T04:08:40;9.77;;;4.28;;
56752;SDS011;42627;42.646;23.642;2023-09-30T04:10:43;11.27;;;3.88;;
56752;SDS011;42627;42.646;23.642;2023-09-30T04:12:44;8.93;;;3.85;;
56752;SDS011;42627;42.646;23.642;2023-09-30T04:14:45;7.32;;;3.50;;
56752;SDS011;42627;42.646;23.642;2023-09-30T04:16:56;8.13;;;3.63;;
56752;SDS011;42627;42.646;23.642;2023-09-30T04:18:58;6.72;;;3.20;;
56752;SDS011;42627;42.646;23.642;2023-09-30T04:20:59;6.32;;;3.30;;
56752;SDS011;42627;42.646;23.642;2023-09-30T04:23:00;7.20;;;3.22;;
56752;SDS011;42627;42.646;23.642;2023-09-30T04:25:02;6.07;;;3.40;;
56752;SDS011;42627;42.646;23.642;2023-09-30T04:27:10;7.93;;;3.85;;
56752;SDS011;42627;42.646;23.642;2023-09-30T04:29:11;7.10;;;3.35;;
56752;SDS011;42627;42.646;23.642;2023-09-30T04:31:15;9.38;;;3.53;;
56752;SDS011;42627;42.646;23.642;2023-09-30T04:33:25;14.52;;;3.75;;
56752;SDS011;42627;42.646;23.642;2023-09-30T04:35:35;10.27;;;3.60;;
56752;SDS011;42627;42.646;23.642;2023-09-30T04:37:37;15.73;;;4.00;;
56752;SDS011;42627;42.646;23.642;2023-09-30T04:39:39;8.90;;;3.70;;
56752;SDS011;42627;42.646;23.642;2023-09-30T04:41:40;8.95;;;3.75;;
56752;SDS011;42627;42.646;23.642;2023-09-30T04:43:44;8.82;;;3.80;;
56752;SDS011;42627;42.646;23.642;2023-09-30T04:45:45;9.13;;;3.75;;
56752;SDS011;42627;42.646;23.642;2023-09-30T04:47:46;11.82;;;4.03;;
56752;SDS011;42627;42.646;23.642;2023-09-30T04:49:49;7.00;;;3.40;;
56752;SDS011;42627;42.646;23.642;2023-09-30T04:51:51;7.03;;;3.67;;
56752;SDS011;42627;42.646;23.642;2023-09-30T04:53:52;6.80;;;3.42;;
56752;SDS011;42627;42.646;23.642;2023-09-30T04:55:55;6.95;;;3.67;;
56752;SDS011;42627;42.646;23.642;2023-09-30T04:57:56;7.13;;;3.83;;
56752;SDS011;42627;42.646;23.642;2023-09-30T05:00:00;10.30;;;3.80;;
56752;SDS011;42627;42.646;23.642;2023-09-30T05:02:10;9.23;;;3.90;;
56752;SDS011;42627;42.646;23.642;2023-09-30T05:04:11;8.18;;;4.22;;
56752;SDS011;42627;42.646;23.642;2023-09-30T05:06:12;6.60;;;3.55;;
56752;SDS011;42627;42.646;23.642;2023-09-30T05:08:13;7.00;;;3.95;;
56752;SDS011;42627;42.646;23.642;2023-09-30T05:10:14;13.27;;;4.30;;
56752;SDS011;42627;42.646;23.642;2023-09-30T05:12:31;6.63;;;4.03;;
56752;SDS011;42627;42.646;23.642;2023-09-30T05:14:42;12.10;;;4.25;;
56752;SDS011;42627;42.646;23.642;2023-09-30T05:16:52;8.60;;;3.33;;
56752;SDS011;42627;42.646;23.642;2023-09-30T05:18:53;10.40;;;3.30;;
56752;SDS011;42627;42.646;23.642;2023-09-30T05:20:54;11.70;;;4.05;;
56752;SDS011;42627;42.646;23.642;2023-09-30T05:22:56;7.22;;;4.18;;
56752;SDS011;42627;42.646;23.642;2023-09-30T05:24:57;13.95;;;3.80;;
56752;SDS011;42627;42.646;23.642;2023-09-30T05:26:58;7.50;;;3.95;;
56752;SDS011;42627;42.646;23.642;2023-09-30T05:28:59;8.88;;;4.63;;
56752;SDS011;42627;42.646;23.642;2023-09-30T08:50:06;9.68;;;3.25;;
56752;SDS011;42627;42.646;23.642;2023-09-30T08:52:10;13.60;;;4.20;;
56752;SDS011;42627;42.646;23.642;2023-09-30T08:54:11;9.55;;;3.75;;
56752;SDS011;42627;42.646;23.642;2023-09-30T08:56:12;7.72;;;3.90;;
56752;SDS011;42627;42.646;23.642;2023-09-30T08:58:14;8.50;;;4.10;;
56752;SDS011;42627;42.646;23.642;2023-09-30T09:00:16;7.70;;;4.25;;
56752;SDS011;42627;42.646;23.642;2023-09-30T09:02:17;8.70;;;3.83;;
56752;SDS011;42627;42.646;23.642;2023-09-30T09:04:18;8.25;;;4.15;;
56752;SDS011;42627;42.646;23.642;2023-09-30T09:09:12;7.10;;;3.58;;
56752;SDS011;42627;42.646;23.642;2023-09-30T09:11:23;7.15;;;3.97;;
56752;SDS011;42627;42.646;23.642;2023-09-30T09:13:25;8.95;;;3.67;;
56752;SDS011;42627;42.646;23.642;2023-09-30T09:15:26;9.13;;;3.53;;
56752;SDS011;42627;42.646;23.642;2023-09-30T09:19:32;8.90;;;3.22;;
56752;SDS011;42627;42.646;23.642;2023-09-30T09:21:33;6.15;;;3.15;;
56752;SDS011;42627;42.646;23.642;2023-09-30T09:23:38;6.65;;;3.28;;
56752;SDS011;42627;42.646;23.642;2023-09-30T09:25:49;10.25;;;3.67;;
56752;SDS011;42627;42.646;23.642;2023-09-30T09:27:51;7.45;;;3.53;;
56752;SDS011;42627;42.646;23.642;2023-09-30T09:29:53;8.40;;;3.33;;
56752;SDS011;42627;42.646;23.642;2023-09-30T09:31:54;9.88;;;4.05;;
56752;SDS011;42627;42.646;23.642;2023-09-30T09:34:13;6.80;;;2.92;;
56752;SDS011;42627;42.646;23.642;2023-09-30T09:36:38;6.93;;;2.97;;
56752;SDS011;42627;42.646;23.642;2023-09-30T09:41:13;9.10;;;2.75;;
56752;SDS011;42627;42.646;23.642;2023-09-30T09:43:14;8.30;;;2.70;;
56752;SDS011;42627;42.646;23.642;2023-09-30T09:45:16;9.75;;;3.33;;
56752;SDS011;42627;42.646;23.642;2023-09-30T09:47:18;5.00;;;1.95;;
56752;SDS011;42627;42.646;23.642;2023-09-30T09:49:20;8.45;;;2.33;;
56752;SDS011;42627;42.646;23.642;2023-09-30T09:51:21;4.85;;;2.00;;
56752;SDS011;42627;42.646;23.642;2023-09-30T09:53:23;6.05;;;2.10;;
56752;SDS011;42627;42.646;23.642;2023-09-30T09:55:24;4.57;;;2.22;;
56752;SDS011;42627;42.646;23.642;2023-09-30T09:57:26;4.05;;;2.17;;
56752;SDS011;42627;42.646;23.642;2023-09-30T09:59:28;5.22;;;2.00;;
56752;SDS011;42627;42.646;23.642;2023-09-30T10:01:30;4.43;;;1.95;;
56752;SDS011;42627;42.646;23.642;2023-09-30T10:03:32;9.88;;;2.60;;
56752;SDS011;42627;42.646;23.642;2023-09-30T10:05:33;6.00;;;2.25;;
56752;SDS011;42627;42.646;23.642;2023-09-30T10:07:35;3.78;;;1.95;;
56752;SDS011;42627;42.646;23.642;2023-09-30T10:14:41;3.72;;;1.98;;
56752;SDS011;42627;42.646;23.642;2023-09-30T10:21:07;4.50;;;1.95;;
56752;SDS011;42627;42.646;23.642;2023-09-30T10:23:28;3.90;;;1.90;;
56752;SDS011;42627;42.646;23.642;2023-09-30T10:25:33;8.00;;;2.10;;
56752;SDS011;42627;42.646;23.642;2023-09-30T10:27:35;3.28;;;1.80;;
56752;SDS011;42627;42.646;23.642;2023-09-30T10:32:21;7.72;;;2.30;;
56752;SDS011;42627;42.646;23.642;2023-09-30T10:34:22;6.55;;;2.25;;
56752;SDS011;42627;42.646;23.642;2023-09-30T10:36:27;4.57;;;2.22;;
56752;SDS011;42627;42.646;23.642;2023-09-30T10:47:45;5.38;;;2.30;;
56752;SDS011;42627;42.646;23.642;2023-09-30T10:49:46;6.38;;;2.35;;
56752;SDS011;42627;42.646;23.642;2023-09-30T10:51:47;5.90;;;2.53;;
56752;SDS011;42627;42.646;23.642;2023-09-30T10:53:49;6.82;;;2.58;;
56752;SDS011;42627;42.646;23.642;2023-09-30T10:55:57;5.38;;;2.80;;
56752;SDS011;42627;42.646;23.642;2023-09-30T10:57:58;7.10;;;2.67;;
56752;SDS011;42627;42.646;23.642;2023-09-30T11:02:24;5.35;;;2.65;;
56752;SDS011;42627;42.646;23.642;2023-09-30T11:04:25;7.03;;;2.83;;
56752;SDS011;42627;42.646;23.642;2023-09-30T11:06:29;5.85;;;2.92;;
56752;SDS011;42627;42.646;23.642;2023-09-30T11:13:42;4.47;;;2.38;;
56752;SDS011;42627;42.646;23.642;2023-09-30T11:15:43;6.95;;;3.15;;
56752;SDS011;42627;42.646;23.642;2023-09-30T11:17:44;6.30;;;2.97;;
56752;SDS011;42627;42.646;23.642;2023-09-30T11:19:46;6.15;;;2.58;;
56752;SDS011;42627;42.646;23.642;2023-09-30T11:21:48;6.63;;;2.78;;
56752;SDS011;42627;42.646;23.642;2023-09-30T11:23:49;7.03;;;3.28;;
56752;SDS011;42627;42.646;23.642;2023-09-30T11:25:51;6.22;;;2.92;;
56752;SDS011;42627;42.646;23.642;2023-09-30T11:30:15;7.85;;;3.03;;
56752;SDS011;42627;42.646;23.642;2023-09-30T11:32:23;5.32;;;2.63;;
56752;SDS011;42627;42.646;23.642;2023-09-30T11:34:34;7.03;;;2.92;;
56752;SDS011;42627;42.646;23.642;2023-09-30T11:36:39;7.60;;;2.97;;
56752;SDS011;42627;42.646;23.642;2023-09-30T11:46:25;6.30;;;3.00;;
56752;SDS011;42627;42.646;23.642;2023-09-30T11:48:27;8.35;;;2.70;;
56752;SDS011;42627;42.646;23.642;2023-09-30T11:50:44;9.18;;;2.90;;
56752;SDS011;42627;42.646;23.642;2023-09-30T11:52:46;5.55;;;3.00;;
56752;SDS011;42627;42.646;23.642;2023-09-30T11:54:47;7.97;;;3.45;;
56752;SDS011;42627;42.646;23.642;2023-09-30T11:56:48;8.35;;;3.10;;
56752;SDS011;42627;42.646;23.642;2023-09-30T11:58:50;6.45;;;3.08;;
56752;SDS011;42627;42.646;23.642;2023-09-30T12:00:54;6.57;;;3.08;;
56752;SDS011;42627;42.646;23.642;2023-09-30T12:02:57;5.20;;;3.10;;
56752;SDS011;42627;42.646;23.642;2023-09-30T12:04:58;7.20;;;2.80;;
56752;SDS011;42627;42.646;23.642;2023-09-30T12:06:59;4.85;;;2.67;;
56752;SDS011;42627;42.646;23.642;2023-09-30T12:09:00;7.55;;;2.53;;
56752;SDS011;42627;42.646;23.642;2023-09-30T12:11:04;5.60;;;2.60;;
56752;SDS011;42627;42.646;23.642;2023-09-30T12:13:05;5.45;;;2.83;;
56752;SDS011;42627;42.646;23.642;2023-09-30T12:15:06;9.93;;;3.10;;
56752;SDS011;42627;42.646;23.642;2023-09-30T12:17:09;6.70;;;3.38;;
56752;SDS011;42627;42.646;23.642;2023-09-30T12:19:11;5.10;;;2.80;;
56752;SDS011;42627;42.646;23.642;2023-09-30T12:21:13;4.63;;;2.40;;
56752;SDS011;42627;42.646;23.642;2023-09-30T12:23:19;6.57;;;2.80;;
56752;SDS011;42627;42.646;23.642;2023-09-30T12:25:21;7.03;;;2.70;;
56752;SDS011;42627;42.646;23.642;2023-09-30T12:27:22;5.47;;;2.92;;
56752;SDS011;42627;42.646;23.642;2023-09-30T12:29:23;5.80;;;2.50;;
56752;SDS011;42627;42.646;23.642;2023-09-30T12:31:24;5.57;;;2.80;;
56752;SDS011;42627;42.646;23.642;2023-09-30T12:33:25;6.72;;;2.80;;
56752;SDS011;42627;42.646;23.642;2023-09-30T12:35:28;6.28;;;2.80;;
56752;SDS011;42627;42.646;23.642;2023-09-30T12:37:29;7.95;;;2.55;;
56752;SDS011;42627;42.646;23.642;2023-09-30T12:39:29;8.45;;;3.20;;
56752;SDS011;42627;42.646;23.642;2023-09-30T12:41:33;5.57;;;2.60;;
56752;SDS011;42627;42.646;23.642;2023-09-30T12:43:40;6.30;;;2.75;;
56752;SDS011;42627;42.646;23.642;2023-09-30T12:46:06;5.70;;;2.47;;
56752;SDS011;42627;42.646;23.642;2023-09-30T12:48:07;6.78;;;2.75;;
56752;SDS011;42627;42.646;23.642;2023-09-30T12:50:08;4.55;;;2.15;;
56752;SDS011;42627;42.646;23.642;2023-09-30T12:52:09;5.00;;;1.95;;
56752;SDS011;42627;42.646;23.642;2023-09-30T12:59:33;5.90;;;2.63;;
56752;SDS011;42627;42.646;23.642;2023-09-30T13:01:34;5.47;;;3.05;;
56752;SDS011;42627;42.646;23.642;2023-09-30T13:03:35;3.60;;;2.22;;
56752;SDS011;42627;42.646;23.642;2023-09-30T13:05:36;5.25;;;2.03;;
56752;SDS011;42627;42.646;23.642;2023-09-30T13:07:37;4.00;;;2.10;;
56752;SDS011;42627;42.646;23.642;2023-09-30T13:09:38;6.85;;;2.40;;
56752;SDS011;42627;42.646;23.642;2023-09-30T13:11:39;4.05;;;2.20;;
56752;SDS011;42627;42.646;23.642;2023-09-30T13:16:11;8.57;;;2.00;;
56752;SDS011;42627;42.646;23.642;2023-09-30T13:18:12;6.35;;;2.03;;
56752;SDS011;42627;42.646;23.642;2023-09-30T13:20:13;4.78;;;2.13;;
56752;SDS011;42627;42.646;23.642;2023-09-30T13:22:14;4.85;;;2.15;;
56752;SDS011;42627;42.646;23.642;2023-09-30T13:29:21;4.95;;;2.78;;
56752;SDS011;42627;42.646;23.642;2023-09-30T13:31:23;4.88;;;2.38;;
56752;SDS011;42627;42.646;23.642;2023-09-30T13:33:24;3.60;;;1.95;;
56752;SDS011;42627;42.646;23.642;2023-09-30T13:35:25;4.05;;;2.13;;
56752;SDS011;42627;42.646;23.642;2023-09-30T16:19:14;7.63;;;2.78;;
56752;SDS011;42627;42.646;23.642;2023-09-30T16:21:15;6.75;;;3.08;;
56752;SDS011;42627;42.646;23.642;2023-09-30T16:23:16;5.97;;;2.55;;
56752;SDS011;42627;42.646;23.642;2023-09-30T16:25:17;10.23;;;3.10;;
56752;SDS011;42627;42.646;23.642;2023-09-30T16:29:39;10.00;;;3.47;;
56752;SDS011;42627;42.646;23.642;2023-09-30T16:31:40;10.23;;;3.38;;
56752;SDS011;42627;42.646;23.642;2023-09-30T16:33:41;6.93;;;3.50;;
56752;SDS011;42627;42.646;23.642;2023-09-30T16:35:42;13.30;;;3.45;;
56752;SDS011;42627;42.646;23.642;2023-09-30T16:37:43;8.90;;;4.03;;
56752;SDS011;42627;42.646;23.642;2023-09-30T16:39:44;9.82;;;3.60;;
56752;SDS011;42627;42.646;23.642;2023-09-30T16:41:45;10.63;;;2.92;;
56752;SDS011;42627;42.646;23.642;2023-09-30T16:46:08;8.00;;;3.00;;
56752;SDS011;42627;42.646;23.642;2023-09-30T16:48:09;11.25;;;3.38;;
56752;SDS011;42627;42.646;23.642;2023-09-30T16:50:10;9.98;;;3.53;;
56752;SDS011;42627;42.646;23.642;2023-09-30T16:52:11;12.68;;;4.15;;
56752;SDS011;42627;42.646;23.642;2023-09-30T16:54:12;6.75;;;3.05;;
56752;SDS011;42627;42.646;23.642;2023-09-30T16:56:13;8.20;;;3.70;;
56752;SDS011;42627;42.646;23.642;2023-09-30T17:05:37;14.32;;;4.05;;
56752;SDS011;42627;42.646;23.642;2023-09-30T17:07:38;11.18;;;2.78;;
56752;SDS011;42627;42.646;23.642;2023-09-30T17:09:39;19.00;;;3.22;;
56752;SDS011;42627;42.646;23.642;2023-09-30T17:11:40;15.77;;;2.83;;
56752;SDS011;42627;42.646;23.642;2023-09-30T17:13:41;14.52;;;3.50;;
56752;SDS011;42627;42.646;23.642;2023-09-30T17:15:42;6.75;;;3.00;;
56752;SDS011;42627;42.646;23.642;2023-09-30T17:17:43;10.98;;;3.00;;
56752;SDS011;42627;42.646;23.642;2023-09-30T17:19:44;8.13;;;3.05;;
56752;SDS011;42627;42.646;23.642;2023-09-30T17:21:46;9.02;;;3.42;;
56752;SDS011;42627;42.646;23.642;2023-09-30T17:23:47;9.95;;;3.05;;
56752;SDS011;42627;42.646;23.642;2023-09-30T17:25:48;10.88;;;3.05;;
56752;SDS011;42627;42.646;23.642;2023-09-30T17:27:49;7.85;;;3.08;;
56752;SDS011;42627;42.646;23.642;2023-09-30T17:29:50;9.00;;;3.28;;
56752;SDS011;42627;42.646;23.642;2023-09-30T17:31:51;10.10;;;3.00;;
56752;SDS011;42627;42.646;23.642;2023-09-30T17:33:52;7.28;;;3.40;;
56752;SDS011;42627;42.646;23.642;2023-09-30T17:35:57;6.25;;;3.20;;
56752;SDS011;42627;42.646;23.642;2023-09-30T17:37:58;11.15;;;3.75;;
56752;SDS011;42627;42.646;23.642;2023-09-30T17:40:00;6.80;;;3.33;;
56752;SDS011;42627;42.646;23.642;2023-09-30T17:42:01;8.00;;;2.97;;
56752;SDS011;42627;42.646;23.642;2023-09-30T17:44:03;9.10;;;3.58;;
56752;SDS011;42627;42.646;23.642;2023-09-30T17:46:08;10.10;;;4.28;;
56752;SDS011;42627;42.646;23.642;2023-09-30T17:50:29;10.05;;;3.88;;
56752;SDS011;42627;42.646;23.642;2023-09-30T17:52:30;11.77;;;4.00;;
56752;SDS011;42627;42.646;23.642;2023-09-30T17:54:31;13.40;;;4.82;;
56752;SDS011;42627;42.646;23.642;2023-09-30T17:56:35;10.70;;;4.55;;
56752;SDS011;42627;42.646;23.642;2023-09-30T18:03:37;18.55;;;5.50;;
56752;SDS011;42627;42.646;23.642;2023-09-30T18:05:38;11.50;;;4.35;;
56752;SDS011;42627;42.646;23.642;2023-09-30T18:07:39;15.40;;;5.18;;
56752;SDS011;42627;42.646;23.642;2023-09-30T18:09:40;17.60;;;5.35;;
56752;SDS011;42627;42.646;23.642;2023-09-30T18:11:41;18.15;;;4.55;;
56752;SDS011;42627;42.646;23.642;2023-09-30T18:13:42;16.25;;;5.57;;
56752;SDS011;42627;42.646;23.642;2023-09-30T18:15:44;14.75;;;5.90;;
56752;SDS011;42627;42.646;23.642;2023-09-30T18:20:08;15.63;;;5.72;;
56752;SDS011;42627;42.646;23.642;2023-09-30T18:22:10;15.57;;;5.25;;
56752;SDS011;42627;42.646;23.642;2023-09-30T18:24:11;17.92;;;4.90;;
56752;SDS011;42627;42.646;23.642;2023-09-30T18:26:12;10.98;;;4.60;;
56752;SDS011;42627;42.646;23.642;2023-09-30T18:33:30;17.17;;;4.28;;
56752;SDS011;42627;42.646;23.642;2023-09-30T18:35:31;12.85;;;3.60;;
56752;SDS011;42627;42.646;23.642;2023-09-30T18:37:32;9.32;;;3.40;;
56752;SDS011;42627;42.646;23.642;2023-09-30T18:39:33;7.10;;;3.67;;
56752;SDS011;42627;42.646;23.642;2023-09-30T18:41:34;8.27;;;3.53;;
56752;SDS011;42627;42.646;23.642;2023-09-30T18:43:35;9.38;;;3.72;;
56752;SDS011;42627;42.646;23.642;2023-09-30T18:45:37;6.47;;;3.70;;
56752;SDS011;42627;42.646;23.642;2023-09-30T22:29:19;7.63;;;3.47;;
56752;SDS011;42627;42.646;23.642;2023-09-30T22:33:41;6.45;;;3.35;;
56752;SDS011;42627;42.646;23.642;2023-09-30T22:35:42;6.32;;;3.63;;
56752;SDS011;42627;42.646;23.642;2023-09-30T22:37:43;10.43;;;4.57;;
56752;SDS011;42627;42.646;23.642;2023-09-30T22:39:44;6.35;;;3.65;;
